createdAt,value
2019-05-10T00:03:00.110Z,11.20
2019-05-10T00:06:01.535Z,11.10
2019-05-10T00:08:46.245Z,10.90
2019-05-10T00:14:59.396Z,10.60
2019-05-10T00:17:41.565Z,10.50
2019-05-10T00:20:24.242Z,10.40
2019-05-10T00:23:07.052Z,10.40
2019-05-10T00:25:51.261Z,10.50
2019-05-10T00:28:33.192Z,10.60
2019-05-10T00:31:15.770Z,10.60
2019-05-10T00:33:58.252Z,10.50
2019-05-10T00:36:39.982Z,10.40
2019-05-10T00:39:22.361Z,10.30
2019-05-10T00:42:04.111Z,10.20
2019-05-10T00:44:46.066Z,10.20
2019-05-10T00:47:28.796Z,10.10
2019-05-10T00:50:11.334Z,10.10
2019-05-10T00:52:54.013Z,10.10
2019-05-10T00:55:36.446Z,10.10
2019-05-10T00:58:19.102Z,10.10
2019-05-10T01:01:01.672Z,10.10
2019-05-10T01:03:43.622Z,10.10
2019-05-10T01:06:25.329Z,10.10
2019-05-10T01:09:07.892Z,10.10
2019-05-10T01:11:49.598Z,10.20
2019-05-10T01:14:31.509Z,10.40
2019-05-10T01:17:13.159Z,10.40
2019-05-10T01:19:55.197Z,10.40
2019-05-10T01:22:37.565Z,10.20
2019-05-10T01:25:34.039Z,10.10
2019-05-10T01:28:03.612Z,10.30
2019-05-10T01:30:45.876Z,10.20
2019-05-10T01:33:28.036Z,10.30
2019-05-10T01:36:09.989Z,10.20
2019-05-10T01:38:51.765Z,10.20
2019-05-10T01:41:35.425Z,10.20
2019-05-10T01:44:18.177Z,10.10
2019-05-10T01:47:01.023Z,10.10
2019-05-10T01:49:43.286Z,10.10
2019-05-10T01:52:25.138Z,10.20
2019-05-10T01:55:07.709Z,10.20
2019-05-10T01:57:50.778Z,10.30
2019-05-10T02:00:33.242Z,10.40
2019-05-10T02:03:15.155Z,10.40
2019-05-10T02:05:58.062Z,10.40
2019-05-10T02:08:40.405Z,10.40
2019-05-10T02:11:23.130Z,10.50
2019-05-10T02:14:04.898Z,10.50
2019-05-10T02:16:47.424Z,10.40
2019-05-10T02:19:29.334Z,10.40
2019-05-10T02:22:11.776Z,10.40
2019-05-10T02:24:54.261Z,10.30
2019-05-10T02:27:35.938Z,10.30
2019-05-10T02:30:19.050Z,10.30
2019-05-10T02:33:01.190Z,10.30
2019-05-10T02:35:43.903Z,10.40
2019-05-10T02:38:26.827Z,10.50
2019-05-10T02:41:09.588Z,10.60
2019-05-10T02:43:52.170Z,10.60
2019-05-10T02:46:34.656Z,10.50
2019-05-10T02:49:16.642Z,10.40
2019-05-10T02:51:59.218Z,10.40
2019-05-10T02:54:41.781Z,10.40
2019-05-10T02:57:23.907Z,10.40
2019-05-10T03:00:05.930Z,10.30
2019-05-10T03:02:48.589Z,10.30
2019-05-10T03:05:30.704Z,10.40
2019-05-10T03:08:13.530Z,10.30
2019-05-10T03:10:56.637Z,10.30
2019-05-10T03:13:39.173Z,10.40
2019-05-10T03:16:21.998Z,10.50
2019-05-10T03:19:04.023Z,10.60
2019-05-10T03:21:45.971Z,10.60
2019-05-10T03:24:28.293Z,10.60
2019-05-10T03:27:10.146Z,10.60
2019-05-10T03:29:52.536Z,10.50
2019-05-10T03:32:34.469Z,10.50
2019-05-10T03:35:17.183Z,10.60
2019-05-10T03:37:59.441Z,10.60
2019-05-10T03:40:41.122Z,10.70
2019-05-10T03:43:23.239Z,10.80
2019-05-10T03:46:05.646Z,10.80
2019-05-10T03:48:47.454Z,10.90
2019-05-10T03:51:29.444Z,10.90
2019-05-10T03:54:12.170Z,10.90
2019-05-10T03:57:11.218Z,10.90
2019-05-10T03:59:37.804Z,10.90
2019-05-10T04:02:19.820Z,11.00
2019-05-10T04:05:02.045Z,10.90
2019-05-10T04:07:44.763Z,10.90
2019-05-10T04:10:27.550Z,11.00
2019-05-10T04:13:09.708Z,11.00
2019-05-10T04:15:54.714Z,11.10
2019-05-10T04:18:37.351Z,11.10
2019-05-10T04:21:21.257Z,11.20
2019-05-10T04:24:03.615Z,11.20
2019-05-10T04:26:46.161Z,11.20
2019-05-10T04:29:28.518Z,11.20
2019-05-10T04:32:10.614Z,11.20
2019-05-10T04:34:52.934Z,11.30
2019-05-10T04:37:35.497Z,11.40
2019-05-10T04:40:18.655Z,11.50
2019-05-10T04:43:01.100Z,11.60
2019-05-10T04:45:43.012Z,11.60
2019-05-10T04:48:25.573Z,11.70
2019-05-10T04:51:08.569Z,11.70
2019-05-10T04:53:51.221Z,11.70
2019-05-10T04:56:33.719Z,11.90
2019-05-10T04:59:16.311Z,12.10
2019-05-10T05:01:58.827Z,12.30
2019-05-10T05:04:41.301Z,12.40
2019-05-10T05:07:23.730Z,12.30
2019-05-10T05:10:06.113Z,12.30
2019-05-10T05:12:48.103Z,12.30
2019-05-10T05:15:31.904Z,12.30
2019-05-10T05:18:14.333Z,12.30
2019-05-10T05:20:56.029Z,12.40
2019-05-10T05:23:38.646Z,12.40
2019-05-10T05:26:20.365Z,12.40
2019-05-10T05:29:02.733Z,12.50
2019-05-10T05:31:44.459Z,12.50
2019-05-10T05:34:27.367Z,12.50
2019-05-10T05:37:09.473Z,12.70
2019-05-10T05:39:52.026Z,12.60
2019-05-10T05:42:34.525Z,12.60
2019-05-10T05:45:16.494Z,12.60
2019-05-10T05:47:59.321Z,12.50
2019-05-10T05:50:41.101Z,12.50
2019-05-10T05:53:23.473Z,12.20
2019-05-10T05:56:12.911Z,12.20
2019-05-10T05:58:49.445Z,12.10
2019-05-10T06:01:31.298Z,12.10
2019-05-10T06:04:13.370Z,12.10
2019-05-10T06:06:59.134Z,12.10
2019-05-10T06:09:39.613Z,12.10
2019-05-10T06:12:21.936Z,12.20
2019-05-10T06:15:04.514Z,12.30
2019-05-10T06:17:56.180Z,12.40
2019-05-10T06:20:29.702Z,12.40
2019-05-10T06:23:12.467Z,12.50
2019-05-10T06:25:54.074Z,12.60
2019-05-10T06:28:57.570Z,12.70
2019-05-10T06:31:20.616Z,12.70
2019-05-10T06:34:03.097Z,12.60
2019-05-10T06:36:45.582Z,12.60
2019-05-10T06:39:28.054Z,12.60
2019-05-10T06:42:09.808Z,12.70
2019-05-10T06:44:52.389Z,12.70
2019-05-10T06:47:34.163Z,12.80
2019-05-10T06:50:15.975Z,12.90
2019-05-10T06:53:00.371Z,13.10
2019-05-10T06:55:42.574Z,13.30
2019-05-10T06:58:24.628Z,13.40
2019-05-10T07:01:07.058Z,13.50
2019-05-10T07:03:49.086Z,13.60
2019-05-10T07:06:31.299Z,13.60
2019-05-10T07:09:14.202Z,13.60
2019-05-10T07:11:56.551Z,13.60
2019-05-10T07:14:45.646Z,13.60
2019-05-10T07:17:23.597Z,13.50
2019-05-10T07:20:06.429Z,13.40
2019-05-10T07:22:48.924Z,13.40
2019-05-10T07:25:31.549Z,13.50
2019-05-10T07:28:15.658Z,13.50
2019-05-10T07:30:56.750Z,13.50
2019-05-10T07:33:40.162Z,13.50
2019-05-10T07:36:27.467Z,13.60
2019-05-10T07:39:08.630Z,13.70
2019-05-10T07:41:51.591Z,13.90
2019-05-10T07:44:33.814Z,14.00
2019-05-10T07:47:16.624Z,14.10
2019-05-10T07:50:03.906Z,14.30
2019-05-10T07:52:45.624Z,14.60
2019-05-10T07:55:29.521Z,14.80
2019-05-10T07:58:10.070Z,15.00
2019-05-10T08:00:51.770Z,15.00
2019-05-10T08:03:35.611Z,15.30
2019-05-10T08:06:19.403Z,15.40
2019-05-10T08:09:06.243Z,15.60
2019-05-10T08:11:45.458Z,15.70
2019-05-10T08:14:28.980Z,15.80
2019-05-10T08:17:11.363Z,15.80
2019-05-10T08:19:53.053Z,15.80
2019-05-10T08:22:41.269Z,15.80
2019-05-10T08:25:19.189Z,15.80
2019-05-10T08:28:05.306Z,15.80
2019-05-10T08:30:51.869Z,15.80
2019-05-10T08:33:29.632Z,15.60
2019-05-10T08:36:12.295Z,15.60
2019-05-10T08:39:05.054Z,15.70
2019-05-10T08:41:39.287Z,15.90
2019-05-10T08:44:23.960Z,16.10
2019-05-10T08:47:07.767Z,16.20
2019-05-10T08:50:06.179Z,16.20
2019-05-10T08:52:34.140Z,16.40
2019-05-10T08:55:17.102Z,16.80
2019-05-10T08:57:59.581Z,17.10
2019-05-10T09:00:53.777Z,17.10
2019-05-10T09:03:25.067Z,17.20
2019-05-10T09:06:11.521Z,17.50
2019-05-10T09:08:53.007Z,17.70
2019-05-10T09:11:36.665Z,17.80
2019-05-10T09:14:20.057Z,17.80
2019-05-10T09:17:04.280Z,17.60
2019-05-10T09:19:46.935Z,17.70
2019-05-10T09:22:33.608Z,17.80
2019-05-10T09:25:13.483Z,17.90
2019-05-10T09:27:55.846Z,17.70
2019-05-10T09:30:53.154Z,17.70
2019-05-10T09:33:22.464Z,17.70
2019-05-10T09:36:04.858Z,17.50
2019-05-10T09:38:47.429Z,17.50
2019-05-10T09:41:36.087Z,17.70
2019-05-10T09:44:13.771Z,18.10
2019-05-10T09:46:56.075Z,18.50
2019-05-10T09:49:38.786Z,18.70
2019-05-10T09:52:20.801Z,18.70
2019-05-10T09:55:04.050Z,19.00
2019-05-10T09:57:48.106Z,19.20
2019-05-10T10:00:30.387Z,19.10
2019-05-10T10:03:13.078Z,19.10
2019-05-10T10:06:05.664Z,18.90
2019-05-10T10:08:43.421Z,18.70
2019-05-10T10:11:23.857Z,18.60
2019-05-10T10:14:07.568Z,18.70
2019-05-10T10:16:58.407Z,18.60
2019-05-10T10:19:37.657Z,18.30
2019-05-10T10:22:19.865Z,18.40
2019-05-10T10:25:02.298Z,18.30
2019-05-10T10:27:45.021Z,18.10
2019-05-10T10:30:28.256Z,17.60
2019-05-10T10:33:13.698Z,17.40
2019-05-10T10:35:56.389Z,17.10
2019-05-10T10:38:45.456Z,17.10
2019-05-10T10:41:25.871Z,16.90
2019-05-10T10:44:04.948Z,16.60
2019-05-10T10:46:48.027Z,16.10
2019-05-10T10:49:32.092Z,15.90
2019-05-10T10:52:14.435Z,15.80
2019-05-10T10:54:57.713Z,15.50
2019-05-10T10:57:40.586Z,15.30
2019-05-10T11:00:23.730Z,15.50
2019-05-10T11:03:06.158Z,15.60
2019-05-10T11:05:48.505Z,15.80
2019-05-10T11:08:33.209Z,16.00
2019-05-10T11:11:15.325Z,16.00
2019-05-10T11:14:00.518Z,16.60
2019-05-10T11:16:41.526Z,17.10
2019-05-10T11:19:23.989Z,17.80
2019-05-10T11:22:09.497Z,18.40
2019-05-10T11:24:59.222Z,18.00
2019-05-10T11:27:34.234Z,17.40
2019-05-10T11:30:17.070Z,17.20
2019-05-10T11:33:00.492Z,17.20
2019-05-10T11:35:43.785Z,17.50
2019-05-10T11:38:26.559Z,17.70
2019-05-10T11:41:13.603Z,17.80
2019-05-10T11:43:57.976Z,17.80
2019-05-10T11:46:36.877Z,17.30
2019-05-10T11:49:21.740Z,17.20
2019-05-10T11:52:13.089Z,17.40
2019-05-10T11:55:02.828Z,17.20
2019-05-10T11:58:00.806Z,17.00
2019-05-10T12:00:34.100Z,17.10
2019-05-10T12:03:18.472Z,17.00
2019-05-10T12:06:05.275Z,16.80
2019-05-10T12:08:42.068Z,16.50
2019-05-10T12:11:32.890Z,16.00
2019-05-10T12:14:07.542Z,15.70
2019-05-10T12:16:54.202Z,15.70
2019-05-10T12:19:45.384Z,15.70
2019-05-10T12:22:21.731Z,15.90
2019-05-10T12:25:27.210Z,16.20
2019-05-10T12:27:49.054Z,16.60
2019-05-10T12:30:34.897Z,17.10
2019-05-10T12:33:24.171Z,17.50
2019-05-10T12:35:57.993Z,17.80
2019-05-10T12:38:40.535Z,18.00
2019-05-10T12:41:23.527Z,17.80
2019-05-10T12:44:07.495Z,17.40
2019-05-10T12:46:51.004Z,17.20
2019-05-10T12:49:36.267Z,16.70
2019-05-10T12:52:17.621Z,16.60
2019-05-10T12:54:59.793Z,16.60
2019-05-10T12:57:43.593Z,16.40
2019-05-10T13:00:26.442Z,16.30
2019-05-10T13:03:12.747Z,16.30
2019-05-10T13:05:52.031Z,16.50
2019-05-10T13:08:20.801Z,16.80
2019-05-10T13:10:51.171Z,17.10
2019-05-10T13:13:23.150Z,17.20
2019-05-10T13:15:53.733Z,17.60
2019-05-10T13:18:48.248Z,18.00
2019-05-10T13:20:58.329Z,18.10
2019-05-10T13:23:28.498Z,18.30
2019-05-10T13:25:59.018Z,18.60
2019-05-10T13:28:29.145Z,18.20
2019-05-10T13:31:05.107Z,18.30
2019-05-10T13:33:40.948Z,18.40
2019-05-10T13:36:03.737Z,18.60
2019-05-10T13:38:37.043Z,18.50
2019-05-10T13:41:07.592Z,18.00
2019-05-10T13:43:37.650Z,17.10
2019-05-10T13:46:07.982Z,16.50
2019-05-10T13:48:41.225Z,16.00
2019-05-10T13:51:12.071Z,15.90
2019-05-10T13:53:42.349Z,15.70
2019-05-10T13:56:12.631Z,15.50
2019-05-10T13:58:42.942Z,15.40
2019-05-10T14:01:14.806Z,15.40
2019-05-10T14:03:48.720Z,15.40
2019-05-10T14:06:17.978Z,15.60
2019-05-10T14:08:50.325Z,15.60
2019-05-10T14:11:20.559Z,15.80
2019-05-10T14:13:50.617Z,15.90
2019-05-10T14:16:22.517Z,16.10
2019-05-10T14:18:53.115Z,16.30
2019-05-10T14:21:36.562Z,16.50
2019-05-10T14:24:08.968Z,16.70
2019-05-10T14:26:39.090Z,17.00
2019-05-10T14:29:11.276Z,17.10
2019-05-10T14:31:48.322Z,17.30
2019-05-10T14:34:18.841Z,17.50
2019-05-10T14:36:49.126Z,17.70
2019-05-10T14:39:19.442Z,18.20
2019-05-10T14:41:51.430Z,18.10
2019-05-10T14:44:22.486Z,18.30
2019-05-10T14:46:52.786Z,18.30
2019-05-10T14:49:23.317Z,18.30
2019-05-10T14:51:58.959Z,18.30
2019-05-10T14:54:25.359Z,18.90
2019-05-10T14:56:55.917Z,18.70
2019-05-10T14:59:26.198Z,18.60
2019-05-10T15:01:56.518Z,18.60
2019-05-10T15:04:44.608Z,18.90
2019-05-10T15:06:58.986Z,19.20
2019-05-10T15:09:29.139Z,20.10
2019-05-10T15:11:59.208Z,20.60
2019-05-10T15:14:29.509Z,20.80
2019-05-10T15:16:59.579Z,21.00
2019-05-10T15:19:31.532Z,21.00
2019-05-10T15:22:09.548Z,21.50
2019-05-10T15:24:39.703Z,21.50
2019-05-10T15:27:10.775Z,21.10
2019-05-10T15:29:41.054Z,20.80
2019-05-10T15:32:11.593Z,19.80
2019-05-10T15:34:42.391Z,19.40
2019-05-10T15:37:17.713Z,19.10
2019-05-10T15:39:48.313Z,18.50
2019-05-10T15:42:21.823Z,18.60
2019-05-10T15:44:51.050Z,19.00
2019-05-10T15:47:22.404Z,19.20
2019-05-10T15:53:43.216Z,19.30
2019-05-10T15:56:25.925Z,18.90
2019-05-10T15:59:12.935Z,18.60
2019-05-10T16:01:52.998Z,18.60
2019-05-10T16:04:36.768Z,18.80
2019-05-10T16:07:19.594Z,19.00
2019-05-10T16:10:02.227Z,19.40
2019-05-10T16:12:44.739Z,19.80
2019-05-10T16:15:27.563Z,20.40
2019-05-10T16:18:09.691Z,20.70
2019-05-10T16:20:51.463Z,21.80
2019-05-10T16:26:24.624Z,19.80
2019-05-10T16:29:07.204Z,18.80
2019-05-10T16:31:49.886Z,18.30
2019-05-10T16:34:32.674Z,18.00
2019-05-10T16:37:16.271Z,17.70
2019-05-10T16:39:58.943Z,17.40
2019-05-10T16:42:41.629Z,17.20
2019-05-10T16:45:24.101Z,17.00
2019-05-10T16:48:06.544Z,16.10
2019-05-10T16:50:49.257Z,14.80
2019-05-10T16:53:31.532Z,13.90
2019-05-10T16:56:19.065Z,13.70
2019-05-10T16:58:59.521Z,13.80
2019-05-10T17:01:42.441Z,13.90
2019-05-10T17:04:24.769Z,14.20
2019-05-10T17:07:07.405Z,14.60
2019-05-10T17:09:54.493Z,14.80
2019-05-10T17:12:33.510Z,14.60
2019-05-10T17:15:15.825Z,14.40
2019-05-10T17:17:57.883Z,14.40
2019-05-10T17:20:40.470Z,14.40
2019-05-10T17:23:23.987Z,14.40
2019-05-10T17:26:06.626Z,14.30
2019-05-10T17:28:48.966Z,14.30
2019-05-10T17:31:31.255Z,14.30
2019-05-10T17:34:22.191Z,14.20
2019-05-10T17:36:59.570Z,14.30
2019-05-10T17:39:41.680Z,14.20
2019-05-10T17:42:24.506Z,14.20
2019-05-10T17:45:06.676Z,14.20
2019-05-10T17:47:48.906Z,14.20
2019-05-10T17:50:31.432Z,14.30
2019-05-10T17:53:14.053Z,14.20
2019-05-10T17:56:02.188Z,14.20
2019-05-10T17:58:40.142Z,14.30
2019-05-10T18:01:23.086Z,14.20
2019-05-10T18:04:05.165Z,14.30
2019-05-10T18:06:46.854Z,14.10
2019-05-10T18:09:28.686Z,14.00
2019-05-10T18:12:15.490Z,14.00
2019-05-10T18:14:56.007Z,13.90
2019-05-10T18:17:39.327Z,13.90
2019-05-10T18:20:22.017Z,13.80
2019-05-10T18:23:03.727Z,13.70
2019-05-10T18:25:45.470Z,13.60
2019-05-10T18:28:28.212Z,13.50
2019-05-10T18:31:10.889Z,13.40
2019-05-10T18:33:55.667Z,13.20
2019-05-10T18:36:51.219Z,13.20
2019-05-10T18:39:21.057Z,13.30
2019-05-10T18:42:03.265Z,13.30
2019-05-10T18:44:45.831Z,13.20
2019-05-10T18:47:30.729Z,13.10
2019-05-10T18:50:13.099Z,13.00
2019-05-10T18:52:54.944Z,13.00
2019-05-10T18:55:37.419Z,13.00
2019-05-10T18:58:23.347Z,13.00
2019-05-10T19:01:03.518Z,12.80
2019-05-10T19:03:45.873Z,12.40
2019-05-10T19:06:31.235Z,12.20
2019-05-10T19:09:12.056Z,12.10
2019-05-10T19:11:55.062Z,12.00
2019-05-10T19:14:37.567Z,11.90
2019-05-10T19:17:19.758Z,11.80
2019-05-10T19:20:02.513Z,11.70
2019-05-10T19:22:46.402Z,11.50
2019-05-10T19:25:28.559Z,11.50
2019-05-10T19:28:11.321Z,11.40
2019-05-10T19:30:58.740Z,11.20
2019-05-10T19:33:38.146Z,11.10
2019-05-10T19:36:21.122Z,11.10
2019-05-10T19:39:03.116Z,11.10
2019-05-10T19:41:44.861Z,11.00
2019-05-10T19:44:26.839Z,10.90
2019-05-10T19:47:11.164Z,10.90
2019-05-10T19:49:54.212Z,10.70
2019-05-10T19:52:36.662Z,10.60
2019-05-10T19:55:21.571Z,10.60
2019-05-10T19:58:03.195Z,10.70
2019-05-10T20:00:45.762Z,10.60
2019-05-10T20:03:28.174Z,10.60
2019-05-10T20:06:09.873Z,10.40
2019-05-10T20:08:51.682Z,10.30
2019-05-10T20:11:34.357Z,10.20
2019-05-10T20:14:17.268Z,10.20
2019-05-10T20:16:59.858Z,10.20
2019-05-10T20:19:42.293Z,10.10
2019-05-10T20:22:24.934Z,10.00
2019-05-10T20:25:07.461Z,9.90
2019-05-10T20:27:49.849Z,9.70
2019-05-10T20:30:32.453Z,9.70
2019-05-10T20:33:15.003Z,9.70
2019-05-10T20:35:56.725Z,9.60
2019-05-10T20:38:39.565Z,9.60
2019-05-10T20:41:23.078Z,9.50
2019-05-10T20:44:04.831Z,9.60
2019-05-10T20:46:46.778Z,9.50
2019-05-10T20:49:29.564Z,9.40
2019-05-10T20:52:11.454Z,9.40
2019-05-10T20:54:53.782Z,9.30
2019-05-10T20:57:36.397Z,9.30
2019-05-10T21:00:18.053Z,9.30
2019-05-10T21:03:00.505Z,9.20
2019-05-10T21:05:43.179Z,9.20
2019-05-10T21:08:24.820Z,9.20
2019-05-10T21:11:07.559Z,9.20
2019-05-10T21:13:49.910Z,9.10
2019-05-10T21:16:32.898Z,9.10
2019-05-10T21:19:15.209Z,9.10
2019-05-10T21:21:56.978Z,9.00
2019-05-10T21:24:39.461Z,9.10
2019-05-10T21:27:22.038Z,9.10
2019-05-10T21:30:04.294Z,9.10
2019-05-10T21:32:46.854Z,9.10
2019-05-10T21:35:28.841Z,9.10
2019-05-10T21:38:11.611Z,9.10
2019-05-10T21:40:54.010Z,9.10
2019-05-10T21:43:36.500Z,9.10
2019-05-10T21:46:19.317Z,9.10
2019-05-10T21:49:02.045Z,9.20
2019-05-10T21:51:45.883Z,9.20
2019-05-10T21:54:28.177Z,9.20
2019-05-10T21:57:10.695Z,9.20
2019-05-10T21:59:52.671Z,9.20
2019-05-10T22:02:35.162Z,9.20
2019-05-10T22:05:17.217Z,9.20
2019-05-10T22:07:59.763Z,9.20
2019-05-10T22:10:41.533Z,9.40
2019-05-10T22:13:24.378Z,9.50
2019-05-10T22:16:06.082Z,9.60
2019-05-10T22:21:56.687Z,9.70
2019-05-10T22:24:38.914Z,9.60
2019-05-10T22:27:21.491Z,9.50
2019-05-10T22:30:03.294Z,9.40
2019-05-10T22:32:45.412Z,9.30
2019-05-10T22:35:28.298Z,9.30
2019-05-10T22:38:10.240Z,9.30
2019-05-10T22:40:52.701Z,9.20
2019-05-10T22:43:34.672Z,9.10
2019-05-10T22:46:17.223Z,9.10
2019-05-10T22:48:59.943Z,9.00
2019-05-10T22:51:42.211Z,8.90
2019-05-10T22:54:24.089Z,8.90
2019-05-10T22:57:06.086Z,8.80
2019-05-10T22:59:48.783Z,8.70
2019-05-10T23:02:31.396Z,8.60
2019-05-10T23:05:14.112Z,8.60
2019-05-10T23:07:57.024Z,8.60
2019-05-10T23:10:39.378Z,8.70
2019-05-10T23:16:11.257Z,8.60
2019-05-10T23:21:43.771Z,8.40
2019-05-10T23:24:45.862Z,8.40
2019-05-10T23:27:27.999Z,8.60
2019-05-10T23:30:10.568Z,8.60
2019-05-10T23:32:52.606Z,8.40
2019-05-10T23:35:35.005Z,8.30
2019-05-10T23:38:17.446Z,8.30
2019-05-10T23:41:00.091Z,8.10
2019-05-10T23:43:42.562Z,8.20
2019-05-10T23:46:25.442Z,8.20
2019-05-10T23:49:07.705Z,8.10
2019-05-10T23:51:50.094Z,7.90
2019-05-10T23:54:32.721Z,7.90
2019-05-10T23:57:15.018Z,7.80
2019-05-10T23:59:57.630Z,7.80
